createdAt,value
2018-11-29T00:01:16.488Z,56.73
2018-11-29T00:03:47.235Z,56.67
2018-11-29T00:06:37.070Z,52.17
2018-11-29T00:09:09.641Z,52.70
2018-11-29T00:11:40.366Z,51.20
2018-11-29T00:14:11.186Z,55.27
2018-11-29T00:16:41.798Z,55.53
2018-11-29T00:19:12.535Z,58.00
2018-11-29T00:21:43.234Z,58.27
2018-11-29T00:24:13.871Z,58.53
2018-11-29T00:26:44.574Z,60.60
2018-11-29T00:29:15.275Z,63.27
2018-11-29T00:31:45.887Z,61.93
2018-11-29T00:34:16.835Z,60.60
2018-11-29T00:36:47.518Z,62.77
2018-11-29T00:39:18.810Z,59.87
2018-11-29T00:41:49.511Z,60.40
2018-11-29T00:44:20.199Z,56.73
2018-11-29T00:46:50.876Z,55.93
2018-11-29T00:49:21.534Z,58.57
2018-11-29T00:51:52.182Z,54.17
2018-11-29T00:54:22.847Z,54.20
2018-11-29T00:56:53.510Z,54.13
2018-11-29T00:59:24.119Z,56.83
2018-11-29T01:02:03.403Z,56.27
2018-11-29T01:04:34.010Z,55.37
2018-11-29T01:07:06.378Z,41.27
2018-11-29T01:09:36.994Z,32.17
2018-11-29T01:12:07.814Z,31.33
2018-11-29T01:14:38.537Z,32.17
2018-11-29T01:17:11.911Z,30.03
2018-11-29T01:19:42.628Z,30.03
2018-11-29T01:22:13.252Z,35.60
2018-11-29T01:24:43.955Z,34.70
2018-11-29T01:27:14.574Z,33.03
2018-11-29T01:29:46.180Z,31.73
2018-11-29T01:32:16.804Z,37.23
2018-11-29T01:34:47.531Z,39.73
2018-11-29T01:37:18.395Z,41.37
2018-11-29T01:39:49.199Z,40.63
2018-11-29T01:42:19.860Z,42.23
2018-11-29T01:44:50.516Z,45.47
2018-11-29T01:47:21.339Z,45.80
2018-11-29T01:49:52.018Z,45.23
2018-11-29T01:52:22.625Z,44.83
2018-11-29T01:54:53.871Z,47.77
2018-11-29T01:57:24.605Z,43.77
2018-11-29T01:59:56.640Z,32.30
2018-11-29T02:02:27.301Z,29.17
2018-11-29T02:04:57.926Z,28.83
2018-11-29T02:07:29.183Z,26.83
2018-11-29T02:10:04.807Z,28.97
2018-11-29T02:12:35.607Z,29.33
2018-11-29T02:15:07.199Z,31.13
2018-11-29T02:17:37.909Z,30.37
2018-11-29T02:20:16.571Z,31.80
2018-11-29T02:22:48.187Z,32.13
2018-11-29T02:25:19.029Z,32.57
2018-11-29T02:27:49.798Z,33.33
2018-11-29T02:30:23.368Z,33.63
2018-11-29T02:32:54.046Z,37.50
2018-11-29T02:35:24.782Z,38.50
2018-11-29T02:37:55.394Z,37.33
2018-11-29T02:40:26.965Z,39.07
2018-11-29T02:42:57.585Z,37.47
2018-11-29T02:45:28.234Z,37.53
2018-11-29T02:47:58.988Z,36.93
2018-11-29T02:50:29.683Z,37.10
2018-11-29T02:53:00.320Z,35.97
2018-11-29T02:55:32.794Z,36.57
2018-11-29T02:58:04.870Z,35.30
2018-11-29T03:00:35.501Z,35.53
2018-11-29T03:03:08.095Z,36.90
2018-11-29T03:05:38.713Z,36.17
2018-11-29T03:08:09.446Z,36.70
2018-11-29T03:10:40.118Z,37.50
2018-11-29T03:13:10.765Z,38.43
2018-11-29T03:15:41.486Z,37.33
2018-11-29T03:18:12.165Z,38.97
2018-11-29T03:20:43.435Z,37.63
2018-11-29T03:23:14.216Z,36.07
2018-11-29T03:25:44.855Z,37.17
2018-11-29T03:28:15.608Z,36.83
2018-11-29T03:30:46.252Z,36.07
2018-11-29T03:33:16.904Z,34.20
2018-11-29T03:35:47.599Z,33.33
2018-11-29T03:38:19.003Z,35.20
2018-11-29T03:40:49.743Z,32.73
2018-11-29T03:43:20.412Z,32.10
2018-11-29T03:45:51.058Z,33.70
2018-11-29T03:48:21.732Z,33.23
2018-11-29T03:50:52.877Z,31.63
2018-11-29T03:53:23.611Z,30.67
2018-11-29T03:55:54.327Z,31.40
2018-11-29T03:58:24.952Z,31.17
2018-11-29T04:00:55.782Z,28.83
2018-11-29T04:03:26.556Z,26.40
2018-11-29T04:05:57.902Z,25.90
2018-11-29T04:08:29.624Z,20.32
2018-11-29T04:11:00.291Z,15.30
2018-11-29T04:13:32.988Z,12.40
2018-11-29T04:16:07.234Z,10.63
2018-11-29T04:18:38.695Z,10.63
2018-11-29T04:21:09.355Z,10.85
2018-11-29T04:23:40.012Z,9.60
2018-11-29T04:26:10.714Z,9.90
2018-11-29T04:28:41.335Z,10.50
2018-11-29T04:31:12.086Z,9.80
2018-11-29T04:33:42.727Z,10.27
2018-11-29T04:36:13.485Z,9.80
2018-11-29T04:38:44.166Z,10.00
2018-11-29T04:41:15.385Z,10.38
2018-11-29T04:43:46.024Z,9.50
2018-11-29T04:46:48.907Z,9.75
2018-11-29T04:49:20.364Z,8.95
2018-11-29T04:51:51.026Z,8.83
2018-11-29T04:54:21.686Z,8.75
2018-11-29T04:56:52.396Z,8.75
2018-11-29T04:59:23.482Z,8.65
2018-11-29T05:01:55.079Z,8.58
2018-11-29T05:04:25.752Z,9.38
2018-11-29T05:06:56.427Z,9.05
2018-11-29T05:09:27.128Z,9.93
2018-11-29T05:11:58.006Z,9.35
2018-11-29T05:14:28.752Z,8.75
2018-11-29T05:16:59.398Z,8.73
2018-11-29T05:19:30.106Z,8.48
2018-11-29T05:22:00.719Z,8.03
2018-11-29T05:24:33.256Z,8.10
2018-11-29T05:27:06.060Z,8.65
2018-11-29T05:29:36.750Z,7.90
2018-11-29T05:32:07.504Z,8.40
2018-11-29T05:34:38.647Z,8.50
2018-11-29T05:37:09.418Z,7.78
2018-11-29T05:39:40.116Z,8.08
2018-11-29T05:42:10.754Z,8.75
2018-11-29T05:44:41.401Z,8.38
2018-11-29T05:47:12.057Z,8.60
2018-11-29T05:49:49.382Z,8.93
2018-11-29T05:52:20.176Z,8.33
2018-11-29T05:54:50.782Z,7.90
2018-11-29T05:57:21.550Z,7.62
2018-11-29T05:59:52.198Z,8.38
2018-11-29T06:02:22.862Z,7.97
2018-11-29T06:04:53.738Z,7.12
2018-11-29T06:07:24.413Z,6.45
2018-11-29T06:09:55.037Z,6.55
2018-11-29T06:12:25.654Z,6.10
2018-11-29T06:14:56.297Z,5.42
2018-11-29T06:17:26.946Z,5.47
2018-11-29T06:19:57.619Z,5.53
2018-11-29T06:22:28.279Z,4.58
2018-11-29T06:24:58.903Z,5.50
2018-11-29T06:27:29.603Z,4.95
2018-11-29T06:30:00.261Z,4.90
2018-11-29T06:32:33.814Z,4.72
2018-11-29T06:35:04.544Z,4.33
2018-11-29T06:37:35.219Z,4.55
2018-11-29T06:40:09.182Z,4.28
2018-11-29T06:42:39.958Z,4.17
2018-11-29T06:45:11.984Z,3.80
2018-11-29T06:47:42.627Z,3.12
2018-11-29T06:50:14.181Z,4.00
2018-11-29T06:52:45.954Z,3.10
2018-11-29T06:55:20.574Z,3.37
2018-11-29T06:57:51.351Z,3.45
2018-11-29T07:00:27.552Z,33.42
2018-11-29T07:02:58.242Z,38.40
2018-11-29T07:05:29.114Z,62.62
2018-11-29T07:07:59.774Z,15.20
2018-11-29T07:10:32.460Z,7.15
2018-11-29T07:13:07.928Z,3.37
2018-11-29T07:15:39.583Z,2.85
2018-11-29T07:18:10.226Z,4.33
2018-11-29T07:20:40.930Z,8.58
2018-11-29T07:23:12.144Z,14.05
2018-11-29T07:25:43.187Z,5.87
2018-11-29T07:28:13.806Z,8.23
2018-11-29T07:30:44.515Z,3.67
2018-11-29T07:33:15.220Z,6.97
2018-11-29T07:35:45.876Z,41.13
2018-11-29T07:38:16.736Z,37.50
2018-11-29T07:40:47.397Z,67.75
2018-11-29T07:43:18.126Z,7.33
2018-11-29T07:45:49.522Z,4.03
2018-11-29T07:48:20.114Z,2.62
2018-11-29T07:50:50.954Z,3.40
2018-11-29T07:53:21.837Z,2.87
2018-11-29T07:55:52.488Z,3.52
2018-11-29T07:58:23.220Z,2.40
2018-11-29T08:00:53.838Z,2.70
2018-11-29T08:03:31.727Z,6.17
2018-11-29T08:06:04.378Z,6.28
2018-11-29T08:08:36.047Z,15.20
2018-11-29T08:11:07.430Z,127.70
2018-11-29T08:13:38.055Z,6.62
2018-11-29T08:16:09.034Z,2.60
2018-11-29T08:18:39.693Z,3.50
2018-11-29T08:21:10.412Z,2.40
2018-11-29T08:23:44.515Z,2.40
2018-11-29T08:26:15.519Z,2.95
2018-11-29T08:28:46.152Z,3.50
2018-11-29T08:31:16.826Z,2.47
2018-11-29T08:33:48.038Z,2.72
2018-11-29T08:36:18.911Z,33.08
2018-11-29T08:38:49.657Z,21.57
2018-11-29T08:41:20.389Z,13.80
2018-11-29T08:43:51.167Z,15.43
2018-11-29T08:46:22.526Z,13.65
2018-11-29T08:48:53.274Z,17.73
2018-11-29T08:51:23.893Z,27.50
2018-11-29T08:53:54.868Z,8.20
2018-11-29T08:56:26.131Z,2.83
2018-11-29T08:58:56.855Z,3.33
2018-11-29T09:01:28.227Z,2.90
2018-11-29T09:03:59.814Z,3.60
2018-11-29T09:06:30.504Z,3.87
2018-11-29T09:09:04.255Z,3.58
2018-11-29T09:11:35.247Z,3.55
2018-11-29T09:14:05.982Z,4.17
2018-11-29T09:16:36.645Z,17.15
2018-11-29T09:19:07.291Z,7.53
2018-11-29T09:21:38.702Z,3.47
2018-11-29T09:24:09.362Z,3.20
2018-11-29T09:26:40.054Z,3.65
2018-11-29T09:29:11.287Z,3.42
2018-11-29T09:31:42.193Z,3.12
2018-11-29T09:34:13.007Z,5.05
2018-11-29T09:36:43.674Z,3.85
2018-11-29T09:39:14.395Z,3.55
2018-11-29T09:41:45.225Z,2.90
2018-11-29T09:44:15.912Z,2.77
2018-11-29T09:46:46.659Z,2.92
2018-11-29T09:49:17.349Z,3.65
2018-11-29T09:51:48.185Z,5.00
2018-11-29T09:54:18.826Z,4.70
2018-11-29T09:56:49.844Z,4.97
2018-11-29T09:59:20.475Z,4.67
2018-11-29T10:01:51.307Z,4.83
2018-11-29T10:04:21.882Z,3.58
2018-11-29T10:06:53.179Z,4.78
2018-11-29T10:09:23.901Z,4.55
2018-11-29T10:11:54.637Z,4.50
2018-11-29T10:14:25.237Z,3.67
2018-11-29T10:16:55.883Z,4.58
2018-11-29T10:19:26.578Z,3.80
2018-11-29T10:21:57.238Z,3.20
2018-11-29T10:24:27.860Z,3.05
2018-11-29T10:26:58.502Z,3.37
2018-11-29T10:29:29.110Z,3.60
2018-11-29T10:31:59.775Z,3.42
2018-11-29T10:34:30.472Z,3.33
2018-11-29T10:37:03.181Z,3.17
2018-11-29T10:39:33.890Z,2.85
2018-11-29T10:42:05.153Z,3.70
2018-11-29T10:44:35.856Z,30.23
2018-11-29T10:47:08.221Z,10.75
2018-11-29T10:49:39.060Z,6.40
2018-11-29T10:52:09.918Z,8.70
2018-11-29T10:54:40.534Z,5.70
2018-11-29T10:57:11.212Z,4.92
2018-11-29T10:59:41.902Z,7.05
2018-11-29T11:02:20.872Z,3.55
2018-11-29T11:04:58.197Z,3.20
2018-11-29T11:07:34.592Z,3.40
2018-11-29T11:10:27.199Z,3.47
2018-11-29T11:12:57.894Z,3.72
2018-11-29T11:15:29.155Z,4.47
2018-11-29T11:17:59.946Z,3.20
2018-11-29T11:20:33.112Z,3.95
2018-11-29T11:23:07.847Z,4.08
2018-11-29T11:25:38.718Z,4.45
2018-11-29T11:28:10.242Z,3.87
2018-11-29T11:30:42.915Z,4.65
2018-11-29T11:33:14.693Z,14.38
2018-11-29T11:35:49.788Z,109.40
2018-11-29T11:38:21.178Z,26.02
2018-11-29T11:40:51.925Z,16.02
2018-11-29T11:43:22.562Z,31.68
2018-11-29T11:45:56.870Z,26.00
2018-11-29T11:48:35.282Z,50.73
2018-11-29T11:51:09.070Z,7.97
2018-11-29T11:53:39.731Z,2.75
2018-11-29T11:56:10.385Z,2.40
2018-11-29T11:58:41.761Z,2.20
2018-11-29T12:01:12.832Z,15.63
2018-11-29T12:03:43.575Z,76.60
2018-11-29T12:06:14.282Z,9.38
2018-11-29T12:08:44.970Z,67.97
2018-11-29T12:11:15.655Z,89.55
2018-11-29T12:13:46.386Z,14.45
2018-11-29T12:16:17.106Z,29.18
2018-11-29T12:18:47.861Z,94.25
2018-11-29T12:21:19.413Z,9.93
2018-11-29T12:23:50.142Z,15.13
2018-11-29T12:26:21.666Z,47.85
2018-11-29T12:28:52.346Z,78.78
2018-11-29T12:31:23.290Z,35.13
2018-11-29T12:33:53.997Z,14.47
2018-11-29T12:36:24.736Z,3.90
2018-11-29T12:38:55.568Z,3.90
2018-11-29T12:41:26.266Z,42.53
2018-11-29T12:43:57.014Z,125.62
2018-11-29T12:46:27.801Z,112.60
2018-11-29T12:48:58.465Z,11.57
2018-11-29T12:51:29.274Z,4.08
2018-11-29T12:53:59.975Z,4.87
2018-11-29T12:56:34.998Z,11.60
2018-11-29T12:59:06.639Z,42.05
2018-11-29T13:01:37.413Z,96.80
2018-11-29T13:04:08.306Z,42.30
2018-11-29T13:06:39.730Z,16.20
2018-11-29T13:09:11.275Z,8.40
2018-11-29T13:11:42.084Z,5.17
2018-11-29T13:14:12.897Z,12.73
2018-11-29T13:16:43.548Z,58.38
2018-11-29T13:19:14.383Z,59.05
2018-11-29T13:21:45.046Z,93.22
2018-11-29T13:24:15.750Z,22.90
2018-11-29T13:26:46.427Z,9.90
2018-11-29T13:29:17.112Z,6.40
2018-11-29T13:31:47.879Z,11.03
2018-11-29T13:34:18.598Z,60.12
2018-11-29T13:36:50.189Z,118.45
2018-11-29T13:39:20.993Z,106.85
2018-11-29T13:41:51.931Z,43.73
2018-11-29T13:44:22.797Z,10.90
2018-11-29T13:46:53.552Z,4.92
2018-11-29T13:49:24.351Z,20.00
2018-11-29T13:51:55.109Z,18.45
2018-11-29T13:54:25.842Z,49.48
2018-11-29T13:57:01.391Z,62.90
2018-11-29T13:59:35.282Z,22.80
2018-11-29T14:02:08.162Z,10.88
2018-11-29T14:04:38.860Z,9.40
2018-11-29T14:07:10.003Z,7.45
2018-11-29T14:09:40.674Z,17.05
2018-11-29T14:12:11.502Z,68.78
2018-11-29T14:14:42.199Z,109.87
2018-11-29T14:17:13.000Z,26.23
2018-11-29T14:19:43.758Z,10.65
2018-11-29T14:22:14.575Z,8.08
2018-11-29T14:24:45.279Z,22.45
2018-11-29T14:27:16.586Z,87.15
2018-11-29T14:29:47.451Z,111.75
2018-11-29T14:32:18.254Z,63.33
2018-11-29T14:34:51.741Z,35.20
2018-11-29T14:37:19.898Z,10.95
2018-11-29T14:39:50.606Z,8.40
2018-11-29T14:42:21.417Z,7.25
2018-11-29T14:44:52.141Z,15.43
2018-11-29T14:47:22.926Z,56.28
2018-11-29T14:49:53.657Z,89.45
2018-11-29T14:52:24.345Z,29.77
2018-11-29T14:54:55.165Z,13.43
2018-11-29T14:57:25.882Z,11.85
2018-11-29T14:59:56.634Z,28.02
2018-11-29T15:02:27.312Z,50.03
2018-11-29T15:04:58.016Z,97.42
2018-11-29T15:07:28.687Z,43.55
2018-11-29T15:09:59.406Z,14.50
2018-11-29T15:12:30.071Z,9.73
2018-11-29T15:15:00.825Z,8.25
2018-11-29T15:17:34.798Z,10.93
2018-11-29T15:20:20.293Z,13.18
2018-11-29T15:22:51.003Z,8.83
2018-11-29T15:25:21.774Z,8.68
2018-11-29T15:27:52.460Z,6.80
2018-11-29T15:30:24.415Z,7.03
2018-11-29T15:32:55.131Z,6.62
2018-11-29T15:35:25.897Z,7.42
2018-11-29T15:37:56.645Z,7.53
2018-11-29T15:40:27.327Z,6.97
2018-11-29T15:42:58.045Z,7.53
2018-11-29T15:45:29.603Z,8.53
2018-11-29T15:48:00.326Z,9.53
2018-11-29T15:50:34.753Z,10.13
2018-11-29T15:53:07.310Z,9.93
2018-11-29T15:55:37.998Z,9.83
2018-11-29T15:58:08.739Z,7.90
2018-11-29T16:00:39.562Z,8.10
2018-11-29T16:03:11.209Z,8.15
2018-11-29T16:05:41.905Z,8.58
2018-11-29T16:08:12.714Z,10.00
2018-11-29T16:10:43.416Z,9.25
2018-11-29T16:13:14.124Z,9.18
2018-11-29T16:15:44.886Z,8.78
2018-11-29T16:18:15.646Z,10.72
2018-11-29T16:20:47.013Z,9.10
2018-11-29T16:23:17.694Z,9.88
2018-11-29T16:25:48.585Z,9.58
2018-11-29T16:28:19.282Z,9.63
2018-11-29T16:30:53.266Z,9.20
2018-11-29T16:33:26.409Z,9.60
2018-11-29T16:35:57.162Z,10.72
2018-11-29T16:38:27.900Z,13.62
2018-11-29T16:40:58.654Z,11.57
2018-11-29T16:43:29.388Z,11.48
2018-11-29T16:46:01.015Z,13.50
2018-11-29T16:48:34.711Z,14.93
2018-11-29T16:51:05.603Z,15.18
2018-11-29T16:53:36.316Z,13.00
2018-11-29T16:56:07.184Z,13.93
2018-11-29T16:58:37.898Z,19.48
2018-11-29T17:01:09.518Z,21.45
2018-11-29T17:03:40.548Z,22.05
2018-11-29T17:06:11.339Z,23.87
2018-11-29T17:08:42.076Z,17.65
2018-11-29T17:11:12.826Z,15.85
2018-11-29T17:13:43.526Z,17.37
2018-11-29T17:16:14.285Z,20.00
2018-11-29T17:18:44.985Z,23.60
2018-11-29T17:21:15.716Z,22.52
2018-11-29T17:24:00.046Z,24.77
2018-11-29T17:26:35.035Z,21.20
2018-11-29T17:29:06.316Z,23.27
2018-11-29T17:31:37.122Z,19.75
2018-11-29T17:34:15.029Z,28.85
2018-11-29T17:36:46.479Z,26.93
2018-11-29T17:39:17.214Z,23.90
2018-11-29T17:41:47.950Z,27.35
2018-11-29T17:44:19.199Z,26.35
2018-11-29T17:46:49.926Z,27.48
2018-11-29T17:49:20.615Z,27.95
2018-11-29T17:51:53.703Z,33.42
2018-11-29T17:54:22.112Z,38.33
2018-11-29T17:56:52.911Z,41.10
2018-11-29T17:59:23.584Z,33.28
2018-11-29T18:01:54.831Z,33.67
2018-11-29T18:04:26.331Z,37.53
2018-11-29T18:06:56.989Z,37.25
2018-11-29T18:09:27.804Z,52.60
2018-11-29T18:11:59.296Z,36.63
2018-11-29T18:14:30.042Z,38.53
2018-11-29T18:17:00.723Z,74.80
2018-11-29T18:19:39.313Z,65.97
2018-11-29T18:22:10.021Z,55.52
2018-11-29T18:24:41.322Z,54.10
2018-11-29T18:27:12.014Z,54.30
2018-11-29T18:29:42.860Z,53.25
2018-11-29T18:32:13.542Z,53.38
2018-11-29T18:34:44.215Z,42.70
2018-11-29T18:37:14.842Z,47.08
2018-11-29T18:39:45.539Z,48.90
2018-11-29T18:42:24.023Z,42.98
2018-11-29T18:44:55.336Z,37.75
2018-11-29T18:47:25.970Z,40.28
2018-11-29T18:49:56.715Z,44.25
2018-11-29T18:52:27.365Z,51.50
2018-11-29T18:54:58.685Z,48.28
2018-11-29T18:57:29.319Z,56.18
2018-11-29T18:59:59.996Z,57.62
2018-11-29T19:02:35.465Z,54.67
2018-11-29T19:05:06.900Z,54.70
2018-11-29T19:07:38.072Z,57.98
2018-11-29T19:10:14.241Z,41.58
2018-11-29T19:12:51.122Z,37.55
2018-11-29T19:15:21.837Z,40.98
2018-11-29T19:17:52.468Z,51.13
2018-11-29T19:20:23.210Z,45.50
2018-11-29T19:22:53.983Z,48.95
2018-11-29T19:25:25.800Z,45.75
2018-11-29T19:27:56.474Z,79.85
2018-11-29T19:30:28.661Z,56.58
2018-11-29T19:33:09.414Z,43.78
2018-11-29T19:35:40.879Z,47.98
2018-11-29T19:38:12.608Z,73.17
2018-11-29T19:40:43.388Z,61.50
2018-11-29T19:43:14.042Z,67.62
2018-11-29T19:45:44.736Z,66.53
2018-11-29T19:48:16.162Z,59.83
2018-11-29T19:50:46.878Z,57.55
2018-11-29T19:53:21.950Z,55.45
2018-11-29T19:55:57.334Z,61.45
2018-11-29T19:58:28.230Z,59.40
2018-11-29T20:00:59.270Z,83.45
2018-11-29T20:03:30.049Z,85.85
2018-11-29T20:06:00.795Z,84.35
2018-11-29T20:08:33.722Z,73.75
2018-11-29T20:11:06.418Z,84.87
2018-11-29T20:13:37.094Z,93.15
2018-11-29T20:16:08.230Z,81.32
2018-11-29T20:18:38.967Z,83.78
2018-11-29T20:21:09.840Z,81.70
2018-11-29T20:23:40.594Z,76.40
2018-11-29T20:26:11.312Z,63.78
2018-11-29T20:28:43.340Z,78.00
2018-11-29T20:31:14.086Z,73.67
2018-11-29T20:33:44.782Z,67.03
2018-11-29T20:36:15.626Z,67.03
2018-11-29T20:38:47.540Z,67.45
2018-11-29T20:41:18.548Z,70.62
2018-11-29T20:43:49.419Z,70.95
2018-11-29T20:46:19.960Z,78.22
2018-11-29T20:48:50.796Z,71.22
2018-11-29T20:51:21.514Z,66.17
2018-11-29T20:53:53.055Z,70.37
2018-11-29T20:56:24.044Z,67.72
2018-11-29T20:58:55.303Z,62.20
2018-11-29T21:01:26.001Z,67.53
2018-11-29T21:03:56.682Z,67.78
2018-11-29T21:06:27.396Z,71.45
2018-11-29T21:08:58.927Z,79.87
2018-11-29T21:11:35.331Z,77.17
2018-11-29T21:14:06.438Z,70.25
2018-11-29T21:16:37.137Z,76.00
2018-11-29T21:19:08.169Z,91.75
2018-11-29T21:21:39.061Z,80.53
2018-11-29T21:24:09.768Z,79.90
2018-11-29T21:26:40.452Z,81.35
2018-11-29T21:29:11.967Z,84.07
2018-11-29T21:31:42.676Z,86.23
2018-11-29T21:34:13.403Z,90.97
2018-11-29T21:36:44.143Z,89.60
2018-11-29T21:39:14.822Z,91.08
2018-11-29T21:41:45.770Z,86.45
2018-11-29T21:44:16.886Z,80.43
2018-11-29T21:46:47.515Z,81.75
2018-11-29T21:49:18.379Z,88.17
2018-11-29T21:51:49.783Z,72.93
2018-11-29T21:54:20.460Z,79.90
2018-11-29T21:56:51.148Z,77.25
2018-11-29T21:59:21.807Z,68.95
2018-11-29T22:01:52.420Z,78.83
2018-11-29T22:04:23.078Z,75.12
2018-11-29T22:06:53.695Z,74.75
2018-11-29T22:09:24.422Z,74.53
2018-11-29T22:11:55.121Z,97.75
2018-11-29T22:14:25.877Z,86.25
2018-11-29T22:16:56.514Z,80.00
2018-11-29T22:19:27.240Z,75.42
2018-11-29T22:21:57.939Z,78.95
2018-11-29T22:24:29.434Z,80.85
2018-11-29T22:27:00.119Z,66.28
2018-11-29T22:29:33.422Z,74.20
2018-11-29T22:32:08.316Z,66.12
2018-11-29T22:34:38.956Z,67.10
2018-11-29T22:37:09.674Z,74.22
2018-11-29T22:39:40.362Z,66.00
2018-11-29T22:42:11.150Z,65.57
2018-11-29T22:44:41.826Z,64.42
2018-11-29T22:47:12.746Z,59.70
2018-11-29T22:49:43.808Z,51.73
2018-11-29T22:52:14.544Z,55.98
2018-11-29T22:54:45.674Z,54.45
2018-11-29T22:57:17.483Z,54.20
2018-11-29T22:59:48.122Z,61.90
2018-11-29T23:02:18.800Z,60.92
2018-11-29T23:04:50.033Z,62.90
2018-11-29T23:07:20.715Z,57.10
2018-11-29T23:09:51.394Z,59.35
2018-11-29T23:12:25.161Z,57.65
2018-11-29T23:14:55.791Z,58.17
2018-11-29T23:17:26.668Z,57.58
2018-11-29T23:19:57.351Z,51.53
2018-11-29T23:22:28.602Z,50.03
2018-11-29T23:24:59.378Z,46.00
2018-11-29T23:27:30.859Z,51.53
2018-11-29T23:30:06.427Z,58.33
2018-11-29T23:32:39.989Z,60.95
2018-11-29T23:35:12.029Z,54.07
2018-11-29T23:37:43.439Z,55.33
2018-11-29T23:40:17.373Z,53.58
2018-11-29T23:42:48.161Z,54.90
2018-11-29T23:45:19.031Z,48.95
2018-11-29T23:47:49.833Z,47.15
2018-11-29T23:50:20.551Z,47.17
2018-11-29T23:52:53.352Z,44.18
2018-11-29T23:55:24.216Z,47.08
2018-11-29T23:57:54.866Z,43.45
